Latest Weather Observations for Whyalla

IDS60801

Issued at 8:11 pm CDT Tuesday 22 October 2019 (issued every 10 minutes, with the page automatically refreshed every 10 minutes)

About weather observations | Map of weather stations | Latest weather observations for SA | Other Formats
Station Details ID: 018120 Name: WHYALLA AERO Lat: -33.05 Lon: 137.52 Height: 9.3 m
Data from the previous 72 hours. | See also: Recent months at Whyalla
Date/Time
CDT
Temp
°C
App
Temp
°C
Dew
Point
°C
Rel
Hum
%
Delta-T
°C
Wind Press
QNH
hPa
Press
MSL
hPa
Rain since
9am
mm
Dir  Spd
km/h
Gust
km/h
Spd
kts
Gust
kts
22/08:00pm 22.5 20.3 7.9 39 7.6 SE 9 13 5 7 1018.6 1018.6 0.0
22/07:30pm 24.1 20.9 6.8 33 8.9 SE 13 19 7 10 1018.4 1018.4 0.0
22/07:00pm 25.9 21.9 4.9 26 10.6 SE 15 24 8 13 1018.1 1018.1 0.0
22/06:30pm 26.3 22.2 6.4 28 10.4 SE 17 22 9 12 1018.1 1018.1 0.0
22/06:00pm 29.2 24.7 -0.1 15 13.9 ESE 13 35 7 19 1018.1 1018.1 0.0
22/05:30pm 29.5 24.2 -0.8 14 14.2 ESE 17 22 9 12 1018.0 1018.0 0.0
22/05:00pm 29.2 23.3 -1.0 14 14.1 ESE 20 26 11 14 1018.1 1018.1 0.0
22/04:30pm 29.9 23.3 -0.5 14 14.3 E 24 32 13 17 1018.4 1018.4 0.0
22/04:00pm 29.4 23.1 -0.9 14 14.2 ESE 22 30 12 16 1018.7 1018.7 0.0
22/03:30pm 29.4 22.9 0.1 15 13.9 ESE 24 30 13 16 1018.9 1018.9 0.0
22/03:00pm 29.3 22.8 0.0 15 13.9 E 24 30 13 16 1019.4 1019.4 0.0
22/02:30pm 29.3 22.8 0.0 15 13.9 ESE 24 30 13 16 1019.9 1019.9 0.0
22/02:00pm 29.0 23.1 1.5 17 13.4 ESE 22 32 12 17 1020.4 1020.4 0.0
22/01:30pm 28.6 22.8 4.2 21 12.4 ESE 24 30 13 16 1020.8 1020.8 0.0
22/01:00pm 27.3 22.5 5.6 25 11.2 ESE 20 24 11 13 1021.2 1021.2 0.0
22/12:30pm 27.9 24.2 6.1 25 11.4 SE 15 20 8 11 1021.8 1021.8 0.0
22/12:00pm 24.9 22.5 10.0 39 8.2 SE 13 17 7 9 1022.3 1022.3 0.0
22/11:30am 23.2 21.0 9.2 41 7.5 ESE 11 19 6 10 1022.6 1022.6 0.0
22/11:00am 27.2 23.8 1.6 19 12.3 NNW 9 20 5 11 1022.8 1022.8 0.0
22/10:30am 25.5 22.4 5.7 28 10.1 E 11 17 6 9 1022.8 1022.8 0.0
22/10:00am 25.8 24.1 5.9 28 10.3 ESE 4 11 2 6 1023.0 1023.0 0.0
22/09:30am 21.8 20.9 7.6 40 7.3 W 2 7 1 4 1023.1 1023.1 0.0
22/09:00am 19.6 17.9 7.4 45 6.2 NW 6 9 3 5 1023.0 1023.0 0.0
22/08:30am 18.8 18.4 8.2 50 5.4 CALM 0 0 0 0 1023.0 1023.0 0.0
22/08:00am 15.4 13.3 5.6 52 4.7 NW 6 6 3 3 1023.1 1023.1 0.0
22/07:30am 12.5 10.0 3.7 55 3.9 NW 6 7 3 4 1022.9 1022.9 0.0
22/07:00am 10.0 7.1 2.4 59 3.2 NW 7 9 4 5 1022.5 1022.5 0.0
22/06:30am 9.8 6.5 2.4 60 3.1 NW 9 9 5 5 1022.0 1022.0 0.0
22/06:00am 9.9 7.0 2.5 60 3.1 NW 7 9 4 5 1022.0 1022.0 0.0
22/05:30am 9.6 6.6 2.0 59 3.2 NW 7 9 4 5 1021.8 1021.8 0.0
22/05:00am 10.0 7.1 2.4 59 3.2 NW 7 9 4 5 1021.9 1021.9 0.0
22/04:30am 10.6 7.9 2.9 59 3.3 NNW 6 7 3 4 1021.9 1021.9 0.0
22/04:00am 10.1 6.9 2.9 61 3.1 NW 9 11 5 6 1022.0 1022.0 0.0
22/03:30am 11.3 8.1 3.3 58 3.5 NNW 9 11 5 6 1022.1 1022.1 0.0
22/03:00am 10.5 7.6 2.6 58 3.4 NW 7 9 4 5 1022.3 1022.3 0.0
22/02:30am 11.3 8.3 4.1 61 3.2 WSW 9 11 5 6 1022.4 1022.4 0.0
22/02:00am 11.0 7.7 2.3 55 3.7 NW 9 11 5 6 1022.9 1022.9 0.0
22/01:30am 11.3 8.2 1.3 50 4.2 W 7 7 4 4 1022.9 1022.9 0.0
22/01:00am 11.2 8.1 1.5 51 4.1 WNW 7 11 4 6 1023.3 1023.3 0.0
22/12:30am 11.9 8.9 2.1 51 4.2 W 7 9 4 5 1023.5 1023.5 0.0
22/12:00am 12.5 9.8 2.4 50 4.4 W 6 7 3 4 1023.7 1023.7 0.0
 
Date/Time
CDT
Temp
°C
App
Temp
°C
Dew
Point
°C
Rel
Hum
%
Delta-T
°C
Wind Press
QNH
hPa
Press
MSL
hPa
Rain since
9am
mm
Dir  Spd
km/h
Gust
km/h
Spd
kts
Gust
kts
21/11:30pm 13.7 10.6 3.8 51 4.5 WSW 9 11 5 6 1023.9 1023.9 0.0
21/11:00pm 13.5 10.8 3.6 51 4.5 SW 7 11 4 6 1023.9 1023.9 0.0
21/10:30pm 14.4 11.9 4.7 52 4.5 SW 7 9 4 5 1024.0 1024.0 0.0
21/10:00pm 14.3 11.7 3.2 47 5.0 SSE 6 7 3 4 1024.1 1024.1 0.0
21/09:30pm 15.7 14.5 4.4 47 5.2 CALM 0 0 0 0 1024.0 1024.0 0.0
21/09:00pm 16.4 15.0 3.5 42 5.9 CALM 0 0 0 0 1023.7 1023.7 0.0
21/08:30pm 17.9 16.7 4.8 42 6.2 CALM 0 0 0 0 1023.5 1023.5 0.0
21/08:00pm 19.8 18.7 5.1 38 7.2 CALM 0 0 0 0 1023.3 1023.3 0.0
21/07:30pm 21.3 19.0 4.8 34 8.1 SSE 6 7 3 4 1023.2 1023.2 0.0
21/07:00pm 22.1 19.1 4.2 31 8.7 SSE 9 11 5 6 1023.2 1023.2 0.0
21/06:30pm 22.7 18.7 2.8 27 9.4 SE 13 17 7 9 1023.3 1023.3 0.0
21/06:00pm 24.1 19.9 1.7 23 10.5 SSE 13 17 7 9 1023.3 1023.3 0.0
21/05:30pm 25.1 21.0 2.5 23 10.8 SE 13 17 7 9 1023.3 1023.3 0.0
21/05:00pm 24.4 20.3 2.5 24 10.5 SSE 13 17 7 9 1023.4 1023.4 0.0
21/04:30pm 24.1 20.1 2.9 25 10.2 SE 13 19 7 10 1023.5 1023.5 0.0
21/04:00pm 24.8 20.3 2.3 23 10.8 SE 15 20 8 11 1023.6 1023.6 0.0
21/03:30pm 24.2 20.1 4.6 28 9.7 SE 15 19 8 10 1023.8 1023.8 0.0
21/03:00pm 24.3 20.2 4.6 28 9.8 ESE 15 19 8 10 1024.3 1024.3 0.0
21/02:30pm 23.5 19.3 5.9 32 8.9 ESE 17 20 9 11 1024.7 1024.7 0.0
21/02:00pm 23.0 19.3 7.9 38 7.9 E 17 20 9 11 1025.0 1025.0 0.0
21/01:30pm 22.1 18.6 8.6 42 7.1 ESE 17 22 9 12 1025.3 1025.3 0.0
21/01:00pm 22.9 19.8 7.4 37 8.1 ESE 13 17 7 9 1025.6 1025.6 0.0
21/12:30pm 22.0 19.2 8.5 42 7.1 ESE 13 17 7 9 1025.9 1025.9 0.0
21/12:00pm 21.2 18.5 8.8 45 6.5 ESE 13 17 7 9 1026.4 1026.4 0.0
21/11:30am 21.3 18.7 9.2 46 6.4 ESE 13 17 7 9 1026.6 1026.6 0.0
21/11:00am 22.2 20.3 9.0 43 7.0 E 9 15 5 8 1027.0 1027.0 0.0
21/10:30am 20.6 18.7 6.9 41 6.9 NNE 6 11 3 6 1027.3 1027.3 0.0
21/10:00am 18.9 17.3 8.0 49 5.6 NNE 6 9 3 5 1027.4 1027.4 0.0
21/09:30am 18.6 16.9 7.7 49 5.5 NNE 6 11 3 6 1027.4 1027.4 0.0
21/09:00am 16.9 16.3 8.8 59 4.1 W 2 6 1 3 1027.4 1027.4 0.0
21/08:30am 15.8 15.8 9.9 68 3.1 CALM 0 0 0 0 1027.3 1027.3 0.0
21/08:00am 13.2 12.0 9.5 78 1.9 W 6 9 3 5 1027.4 1027.4 0.0
21/07:30am 10.3 8.5 7.9 85 1.1 NW 7 9 4 5 1027.2 1027.2 0.0
21/07:00am 8.3 5.8 6.6 89 0.8 NW 9 11 5 6 1026.8 1026.8 0.0
21/06:30am 7.7 4.7 6.2 90 0.7 NW 11 13 6 7 1026.4 1026.4 0.0
21/06:00am 7.6 5.0 5.9 89 0.8 WNW 9 9 5 5 1026.2 1026.2 0.0
21/05:30am 7.8 5.1 5.8 87 0.9 W 9 13 5 7 1026.3 1026.3 0.0
21/05:00am 8.1 5.9 6.2 88 0.9 WNW 7 9 4 5 1026.2 1026.2 0.0
21/04:30am 8.1 5.4 5.7 85 1.1 WNW 9 11 5 6 1026.3 1026.3 0.0
21/04:00am 8.9 6.8 6.5 85 1.1 WSW 7 9 4 5 1026.3 1026.3 0.0
21/03:30am 9.5 7.1 6.9 84 1.2 SW 9 13 5 7 1026.3 1026.3 0.0
21/03:00am 10.7 8.1 7.9 83 1.3 SSW 11 13 6 7 1026.0 1026.0 0.0
21/02:30am 11.3 9.1 7.8 79 1.7 S 9 11 5 6 1025.9 1025.9 0.0
21/02:00am 12.7 10.7 8.8 77 2.0 SSE 9 11 5 6 1026.2 1026.2 0.0
21/01:30am 13.4 10.7 8.9 74 2.3 SE 13 15 7 8 1026.8 1026.8 0.0
21/01:00am 13.9 11.1 8.5 70 2.7 ESE 13 19 7 10 1027.3 1027.3 0.0
21/12:30am 14.4 11.7 8.8 69 2.8 ESE 13 15 7 8 1027.6 1027.6 0.0
21/12:00am 14.7 11.8 9.5 71 2.7 SE 15 22 8 12 1027.9 1027.9 0.0
 
Date/Time
CDT
Temp
°C
App
Temp
°C
Dew
Point
°C
Rel
Hum
%
Delta-T
°C
Wind Press
QNH
hPa
Press
MSL
hPa
Rain since
9am
mm
Dir  Spd
km/h
Gust
km/h
Spd
kts
Gust
kts
20/11:30pm 14.8 11.4 9.0 68 2.9 SE 17 26 9 14 1028.3 1028.3 0.0
20/11:00pm 15.2 12.5 11.8 80 1.8 SSE 17 22 9 12 1028.7 1028.7 0.0
20/10:30pm 14.5 12.2 10.5 77 2.1 S 13 17 7 9 1029.1 1029.1 0.0
20/10:00pm 15.5 11.7 11.1 75 2.3 S 22 30 12 16 1029.2 1029.2 0.0
20/09:30pm 15.8 11.9 10.8 72 2.6 SSW 22 32 12 17 1028.7 1028.7 0.0
20/09:00pm 15.9 11.4 10.2 69 3.0 S 24 30 13 16 1027.8 1027.8 0.0
20/08:30pm 16.0 12.4 10.5 70 2.9 S 20 32 11 17 1027.3 1027.3 0.0
20/08:00pm 16.1 12.5 10.4 69 3.0 S 20 28 11 15 1027.0 1027.0 0.0
20/07:30pm 16.3 12.5 11.2 72 2.7 S 22 28 12 15 1026.7 1026.7 0.0
20/07:00pm 17.2 13.4 11.0 67 3.3 S 22 32 12 17 1026.4 1026.4 0.0
20/06:30pm 17.9 14.1 11.2 65 3.6 S 22 30 12 16 1026.4 1026.4 0.0
20/06:00pm 18.2 14.5 10.1 59 4.3 S 20 30 11 16 1026.3 1026.3 0.0
20/05:30pm 19.1 14.6 8.4 50 5.5 S 22 28 12 15 1026.3 1026.3 0.0
20/05:00pm 20.1 15.7 7.5 44 6.5 S 20 26 11 14 1026.2 1026.2 0.0
20/04:30pm 20.6 16.6 6.5 40 7.1 S 17 24 9 13 1026.3 1026.3 0.0
20/04:00pm 19.8 15.3 6.2 41 6.8 SSE 19 22 10 12 1026.7 1026.7 0.0
20/03:30pm 19.2 15.0 5.6 41 6.6 S 17 26 9 14 1026.8 1026.8 0.0
20/03:00pm 18.8 14.7 6.3 44 6.2 S 17 24 9 13 1027.2 1027.2 0.0
20/02:30pm 18.8 14.7 6.3 44 6.2 SSE 17 24 9 13 1027.5 1027.5 0.0
20/02:00pm 18.3 14.4 5.5 43 6.2 SSE 15 24 8 13 1027.8 1027.8 0.0
20/01:30pm 17.5 14.0 5.4 45 5.8 S 13 24 7 13 1027.9 1027.9 0.0
20/01:00pm 17.2 13.4 5.8 47 5.5 SSE 15 20 8 11 1028.3 1028.3 0.0
20/12:30pm 17.0 12.3 5.3 46 5.6 SSE 19 28 10 15 1028.7 1028.7 0.0
20/12:00pm 16.0 12.1 7.0 55 4.4 SSE 17 26 9 14 1028.9 1028.9 0.0
20/11:30am 15.9 11.4 7.1 56 4.3 SE 20 28 11 15 1029.2 1029.2 0.0
20/11:00am 15.6 11.1 6.3 54 4.5 SE 19 28 10 15 1029.6 1029.6 0.0
20/10:30am 14.8 10.3 6.1 56 4.1 SE 19 26 10 14 1029.7 1029.7 0.0
20/10:00am 15.1 10.8 7.2 59 3.9 SE 19 28 10 15 1029.8 1029.8 0.0
20/09:30am 14.8 10.5 7.1 60 3.7 SE 19 26 10 14 1029.8 1029.8 0.0
20/09:00am 15.0 11.5 7.3 60 3.8 ESE 15 22 8 12 1029.7 1029.7 0.0
20/08:30am 14.3 10.5 7.6 64 3.3 ESE 17 20 9 11 1029.6 1029.6 0.0
20/08:00am 14.0 10.7 8.0 67 3.0 ESE 15 19 8 10 1029.4 1029.4 0.0
20/07:30am 13.1 11.1 8.6 74 2.2 SE 9 13 5 7 1029.0 1029.0 0.0
20/07:00am 11.8 9.6 7.7 76 2.0 ESE 9 13 5 7 1028.7 1028.7 0.0
20/06:30am 11.6 8.5 7.3 75 2.1 ESE 13 19 7 10 1028.4 1028.4 0.0
20/06:00am 11.8 8.4 7.5 75 2.1 ESE 15 22 8 12 1028.2 1028.2 0.0
20/05:30am 12.1 8.4 7.8 75 2.1 ESE 17 22 9 12 1027.7 1027.7 0.0
20/05:00am 12.1 8.7 7.6 74 2.2 ESE 15 19 8 10 1027.4 1027.4 0.0
20/04:30am 12.4 8.7 7.9 74 2.2 ESE 17 22 9 12 1027.0 1027.0 0.0
20/04:00am 12.4 8.8 6.7 68 2.7 SE 15 20 8 11 1027.1 1027.1 0.0
20/03:30am 12.4 8.3 6.0 65 3.0 SE 17 22 9 12 1026.9 1026.9 0.0
20/03:00am 12.5 8.7 5.7 63 3.2 SE 15 24 8 13 1026.9 1026.9 0.0
20/02:30am 12.6 8.9 6.4 66 2.9 SSE 15 22 8 12 1026.9 1026.9 0.0
20/02:00am 13.0 9.4 6.8 66 3.0 SSE 15 24 8 13 1027.1 1027.1 0.0
20/01:30am 12.7 9.5 6.7 67 2.9 SSE 13 19 7 10 1027.3 1027.3 0.0
20/01:00am 13.0 9.0 6.8 66 3.0 S 17 24 9 13 1027.5 1027.5 0.0
20/12:30am 13.1 9.1 6.7 65 3.1 SSE 17 24 9 13 1027.5 1027.5 0.0
20/12:00am 13.3 9.0 6.9 65 3.1 S 19 28 10 15 1027.3 1027.3 0.0
 
Date/Time
CDT
Temp
°C
App
Temp
°C
Dew
Point
°C
Rel
Hum
%
Delta-T
°C
Wind Press
QNH
hPa
Press
MSL
hPa
Rain since
9am
mm
Dir  Spd
km/h
Gust
km/h
Spd
kts
Gust
kts
19/11:30pm 13.5 9.0 6.8 64 3.2 SSE 20 35 11 19 1027.3 1027.3 0.0
19/11:00pm 13.6 8.7 6.9 64 3.2 S 22 32 12 17 1027.2 1027.2 0.0
19/10:30pm 13.8 8.5 6.9 63 3.3 S 24 32 13 17 1027.4 1027.4 0.0
19/10:00pm 14.0 9.0 8.0 67 3.0 S 24 33 13 18 1027.4 1027.4 0.0
19/09:30pm 13.9 7.9 7.2 64 3.2 S 28 39 15 21 1027.0 1027.0 0.0
19/09:00pm 14.0 8.1 7.3 64 3.3 S 28 39 15 21 1026.7 1026.7 0.0
19/08:30pm 14.2 7.4 7.0 62 3.5 S 32 46 17 25 1026.3 1026.3 0.0

Other formats

Comma delimited format used in spreadsheet applications
http://www.bom.gov.au/fwo/IDS60801/IDS60801.95664.axf

JavaScript Object Notation format (JSON) in row-major order
http://www.bom.gov.au/fwo/IDS60801/IDS60801.95664.json

Data quality

Most of these data are generated automatically and are frequently updated. Quality checks on data are not normally performed. It is possible for incorrect values to appear. Refer to information at About Latest Weather Observations and please check the disclaimer before using these data.